Date,TemperatureHighF,TemperatureAvgF,TemperatureLowF,DewpointHighF,DewpointAvgF,DewpointLowF,HumidityHigh,HumidityAvg,HumidityLow,PressureMaxIn,PressureMinIn,WindSpeedMaxMPH,WindSpeedAvgMPH,GustSpeedMaxMPH,PrecipitationSumIn
2013-1-1,44.8,33.0,27.7,40.3,30.9,26.2,96,92,81,30.54,30.38,5,0,5,0.00
2013-1-2,49.8,31.5,23.9,41.6,28.5,22.4,96,89,68,30.40,30.23,4,0,4,0.00
2013-1-3,49.1,32.3,21.4,41.0,27.2,19.6,95,83,52,30.24,30.11,14,1,14,0.13
2013-1-4,49.8,42.1,35.6,47.2,40.2,32.9,95,93,89,30.34,30.18,7,0,7,0.04
2013-1-5,43.9,39.7,36.5,42.6,38.3,35.1,97,95,92,30.23,30.12,9,1,9,0.22
2013-1-6,45.7,41.0,39.0,42.3,38.9,37.1,96,92,84,30.21,30.02,13,1,13,0.45
2013-1-7,48.2,43.1,39.4,47.1,41.8,37.8,96,95,94,30.19,29.85,13,1,13,1.14
2013-1-8,50.0,44.4,39.4,48.7,43.2,38.0,97,96,94,30.20,29.75,22,3,22,0.47
2013-1-9,49.8,38.7,31.6,48.1,37.1,30.4,95,94,93,29.98,29.68,18,1,18,1.57
2013-1-10,35.8,33.0,30.7,34.7,32.0,29.7,96,96,95,30.14,29.97,4,0,4,0.12
2013-1-11,42.4,30.3,23.0,37.6,28.1,21.2,96,92,80,30.37,30.13,8,0,8,0.00
2013-1-12,39.9,26.3,20.1,35.7,23.7,18.6,95,90,76,30.49,30.35,5,0,5,0.00
2013-1-13,39.0,26.7,17.8,34.9,24.0,15.8,95,90,79,30.53,30.47,5,0,5,0.00
2013-1-14,35.4,32.0,28.6,33.6,30.2,26.8,94,93,92,30.61,30.50,3,0,3,0.02
2013-1-15,45.7,33.4,25.5,41.1,31.2,23.8,96,92,75,30.74,30.60,5,0,5,0.02
2013-1-16,46.2,30.3,22.1,41.8,27.7,20.3,96,90,77,30.73,30.55,4,0,4,0.00
2013-1-17,48.7,31.7,23.7,42.5,29.0,22.0,96,90,77,30.56,30.32,5,0,5,0.00
2013-1-18,45.0,30.3,21.4,40.6,28.0,19.6,95,91,80,30.39,30.29,6,0,6,0.00
2013-1-19,36.3,30.7,27.1,33.6,29.0,25.6,94,93,90,30.43,30.37,3,0,3,0.00
2013-1-20,43.0,31.9,24.6,38.1,29.5,22.9,94,91,82,30.44,30.30,4,0,4,0.00
2013-1-21,38.3,30.3,24.1,34.7,28.1,22.3,94,91,86,30.31,30.16,4,0,4,0.00
2013-1-22,43.2,31.1,21.0,39.1,29.0,19.3,95,92,84,30.20,29.92,4,0,4,0.00
2013-1-23,42.1,38.2,32.9,40.3,36.5,31.3,95,94,91,30.16,29.86,9,0,9,10.76
2013-1-24,48.4,40.4,33.4,44.9,38.0,32.1,96,91,80,30.24,30.07,11,0,11,0.43
2013-1-25,53.2,43.7,34.9,46.6,40.9,32.7,95,90,78,30.08,29.95,11,1,11,0.00
2013-1-26,40.1,37.1,34.9,38.8,35.7,33.3,96,95,94,30.06,29.89,9,0,9,0.88
2013-1-27,41.5,37.5,34.7,40.2,36.0,33.3,96,95,93,30.08,30.01,10,0,10,0.92
2013-1-28,35.8,34.2,33.3,34.7,32.9,31.9,96,95,95,30.11,30.02,4,0,4,1.77
2013-1-29,41.4,38.2,34.3,40.3,37.1,33.3,97,96,94,30.37,30.11,8,0,8,1.45
2013-1-30,49.3,43.5,40.5,47.7,42.3,39.4,96,95,94,30.40,30.35,7,0,7,0.41
2013-1-31,47.1,43.8,41.9,45.6,42.3,40.5,96,95,93,30.41,30.32,7,0,7,0.22
2013-2-1,55.2,43.2,31.8,50.2,40.6,30.3,96,91,76,30.43,30.35,8,0,8,0.04
2013-2-2,51.4,36.0,28.8,46.9,33.9,27.4,97,92,80,30.42,30.27,6,0,6,0.00
2013-2-3,41.9,36.6,34.5,40.4,35.1,32.6,95,94,93,30.32,30.29,6,0,6,0.00
2013-2-4,52.9,44.9,41.2,47.9,42.2,39.6,95,90,78,30.23,29.89,9,0,9,0.04
2013-2-5,51.4,45.6,41.7,46.0,42.2,39.3,92,88,80,29.95,29.85,16,3,16,0.12
2013-2-6,49.6,44.8,42.8,42.7,39.7,38.0,88,83,70,30.07,29.81,14,3,14,0.04
2013-2-7,48.7,41.0,28.6,41.3,36.1,26.7,93,83,70,30.23,29.83,16,2,16,0.20
2013-2-8,46.8,34.9,25.2,41.7,32.0,23.4,95,89,78,30.34,30.22,4,0,4,0.00
2013-2-9,44.4,39.4,36.1,41.5,37.1,34.3,94,92,88,30.37,30.28,1,0,1,0.05
2013-2-10,54.3,39.6,30.0,45.3,35.9,28.7,96,87,70,30.40,30.34,0,0,0,0.00
2013-2-11,45.5,40.4,36.7,42.0,38.0,34.5,93,91,87,30.39,30.35,6,0,6,0.08
2013-2-12,50.2,44.7,39.9,46.8,42.3,38.0,94,91,85,30.43,30.30,10,1,10,0.02
2013-2-13,51.1,44.7,40.3,46.0,41.8,38.0,95,90,80,30.52,30.31,8,0,8,0.08
2013-2-14,54.5,45.4,40.1,46.7,41.9,38.2,94,88,73,30.58,30.51,8,1,8,0.10
2013-2-15,61.7,43.5,31.3,49.3,38.6,29.8,96,84,59,30.58,30.19,7,0,7,0.00
2013-2-16,47.1,41.0,32.2,45.1,39.1,30.4,96,93,88,30.22,30.14,12,0,12,0.61
2013-2-17,46.2,39.9,33.6,42.3,37.3,31.7,94,90,83,30.27,30.14,8,0,8,0.31
2013-2-18,49.3,38.2,30.2,43.2,34.8,28.7,96,88,72,30.14,29.79,8,1,8,0.00
2013-2-19,57.0,40.3,29.1,43.6,33.7,26.5,94,79,51,30.03,29.77,15,0,15,0.00
2013-2-20,45.9,36.2,27.7,41.3,33.5,25.4,95,90,78,30.07,30.02,10,0,10,0.02
2013-2-21,41.5,38.9,36.7,39.7,36.9,34.5,94,92,91,30.10,30.02,9,1,9,0.35
2013-2-22,43.3,39.2,33.4,40.9,37.2,31.6,94,93,89,30.07,29.69,19,3,19,0.61
2013-2-23,46.9,37.4,32.4,44.1,35.5,30.5,96,93,85,30.40,29.92,7,0,7,0.51
2013-2-24,46.6,40.7,33.3,40.3,36.7,31.7,95,86,75,30.41,29.99,15,2,15,0.02
2013-2-25,48.0,42.3,39.4,44.7,36.9,32.4,93,82,60,30.33,29.92,24,2,24,0.24
2013-2-26,48.9,40.7,31.6,42.4,33.8,29.3,94,77,60,30.39,30.22,14,2,14,0.02
2013-2-27,57.7,44.5,39.0,44.3,37.9,35.1,92,79,49,30.33,30.23,10,1,11,0.31
2013-2-28,50.9,44.8,39.4,48.9,42.4,36.2,94,91,88,30.33,30.21,13,2,13,0.49
2013-3-1,56.8,53.6,50.7,50.4,49.0,46.9,93,85,77,30.36,30.29,19,4,19,0.02
2013-3-2,57.4,48.8,36.7,48.4,42.9,34.5,93,81,67,30.29,30.07,18,3,18,0.37
2013-3-3,48.0,38.5,28.9,42.4,35.5,26.9,94,89,72,30.34,30.21,9,0,9,0.16
2013-3-4,60.4,39.7,25.0,42.6,30.4,23.2,95,73,39,30.34,29.96,0,0,0,0.00
2013-3-5,60.1,44.8,35.2,36.9,32.6,27.2,83,64,42,29.97,29.75,0,0,0,0.00
2013-3-6,45.0,39.4,33.4,41.7,36.6,30.2,92,90,83,29.93,29.60,0,0,0,0.51
2013-3-7,50.2,40.8,31.8,44.7,37.8,29.8,92,89,80,30.13,29.93,0,0,0,0.35
2013-3-8,57.6,39.6,27.3,47.9,34.1,25.8,95,82,59,30.27,30.11,0,0,0,0.02
2013-3-9,61.0,41.2,26.6,46.6,33.9,24.4,95,78,48,30.52,30.27,0,0,0,0.00
2013-3-10,52.3,42.0,31.3,44.7,37.1,28.8,94,83,67,30.53,30.45,0,0,0,0.00
2013-3-11,61.7,46.6,31.1,45.5,38.6,29.1,94,76,46,30.48,30.18,0,0,0,0.00
2013-3-12,51.4,49.4,46.0,48.1,46.4,41.2,94,89,83,30.18,30.07,12,2,12,0.81
2013-3-13,53.8,51.1,49.6,50.6,48.6,47.5,94,91,86,30.23,30.10,14,1,14,0.41
2013-3-14,55.2,50.1,47.1,51.8,47.6,43.8,96,91,83,30.17,30.05,12,1,12,0.10
2013-3-15,63.5,52.7,46.9,53.2,47.7,44.1,94,84,64,30.23,30.14,10,1,10,0.06
2013-3-16,51.4,44.4,36.3,45.4,41.1,33.9,93,88,76,30.15,29.89,20,2,20,0.51
2013-3-17,52.2,41.9,35.2,43.4,35.9,31.7,94,81,59,30.22,29.99,11,1,11,0.10
2013-3-18,52.7,41.7,32.4,42.6,34.0,28.4,93,76,42,30.29,30.14,25,1,25,0.41
2013-3-19,59.9,41.4,29.5,44.9,33.0,27.2,94,75,40,30.28,29.62,17,1,17,0.06
2013-3-20,56.8,45.9,34.3,47.6,40.8,31.1,92,83,61,30.04,29.41,30,4,30,0.76
2013-3-21,51.1,39.4,34.3,43.6,35.2,32.2,93,86,68,30.23,30.04,9,1,9,0.20
2013-3-22,51.1,37.3,28.0,40.8,32.5,25.5,92,83,62,30.42,30.22,6,0,8,0.23
2013-3-23,61.0,39.6,27.1,41.1,29.8,25.0,94,72,36,30.45,30.33,8,0,8,0.00
2013-3-24,62.4,42.1,26.4,39.5,30.4,24.1,93,68,31,30.35,30.14,10,1,10,0.00
2013-3-25,70.3,46.5,27.3,41.8,31.7,24.7,92,62,28,30.18,29.95,9,1,9,0.00
2013-3-26,71.2,48.5,32.5,46.2,36.0,29.1,90,66,36,30.04,29.98,8,1,8,0.00
2013-3-27,63.0,49.3,38.1,46.7,40.7,34.8,91,74,53,30.03,29.96,5,0,5,0.00
2013-3-28,69.6,51.9,36.3,51.5,42.6,33.3,93,73,46,30.17,30.02,9,0,9,0.02
2013-3-29,73.4,52.4,35.8,53.0,42.4,33.6,94,72,42,30.28,30.17,3,0,3,0.00
2013-3-30,72.0,51.3,32.7,51.2,40.9,30.6,94,71,37,30.30,30.10,12,1,12,0.00
2013-3-31,65.7,39.8,33.4,53.1,36.7,31.2,93,89,60,30.11,30.04,0,0,0,0.00
2013-4-1,71.4,52.0,36.0,53.5,43.8,33.6,93,76,51,30.16,29.98,8,1,8,0.00
2013-4-2,58.1,52.8,46.4,49.1,46.6,42.4,89,80,71,30.23,30.17,8,1,8,10.22
2013-4-3,72.7,55.8,45.3,53.0,45.9,42.5,92,72,43,30.21,29.96,10,1,10,0.00
2013-4-4,58.6,52.0,45.5,53.8,48.2,42.8,91,87,81,29.97,29.65,12,1,12,0.28
2013-4-5,60.4,52.6,48.0,51.4,48.0,44.3,93,85,67,29.88,29.75,17,3,19,0.78
2013-4-6,55.9,48.8,45.1,46.7,43.2,38.9,90,81,69,29.94,29.71,19,4,19,0.18
2013-4-7,46.6,42.9,40.6,42.3,39.4,37.7,92,87,79,29.91,29.53,8,0,8,0.41
2013-4-8,58.8,46.6,41.0,49.6,42.1,38.0,93,85,64,30.29,29.91,6,0,6,0.22
2013-4-9,61.0,51.0,41.7,48.1,43.1,38.8,91,75,59,30.36,30.20,10,1,10,0.00
2013-4-10,54.5,50.4,45.5,48.6,44.6,40.3,91,81,71,30.28,29.93,15,3,15,0.35
2013-4-11,58.8,48.9,43.3,45.2,41.6,37.7,92,77,51,30.32,30.25,10,1,10,0.25
2013-4-12,51.6,40.8,32.2,44.5,37.0,29.8,94,86,67,30.22,29.71,21,2,21,0.42
2013-4-13,53.1,41.4,37.0,46.4,37.5,33.5,90,86,75,30.02,29.76,11,1,11,0.45
2013-4-14,60.1,45.4,37.0,45.4,37.9,33.5,93,77,47,30.04,29.93,9,1,9,0.11
2013-4-15,57.9,45.5,34.9,44.2,38.8,32.0,91,79,54,30.22,29.96,41,1,41,0.12
2013-4-16,62.8,45.0,28.8,50.9,35.7,27.0,94,73,41,30.43,30.21,10,0,10,0.08
2013-4-17,70.0,49.0,31.6,47.7,37.0,29.4,93,68,35,30.48,30.40,11,1,11,0.00
2013-4-18,53.2,47.0,43.0,44.1,41.5,36.3,91,81,69,30.48,30.24,11,1,11,0.43
2013-4-19,58.3,50.4,46.6,53.7,47.6,44.1,94,90,82,30.24,30.08,8,1,8,0.94
2013-4-20,63.0,49.8,46.0,52.0,45.7,43.2,93,86,64,30.31,30.21,11,0,11,0.38
2013-4-21,56.5,46.6,36.0,49.5,42.4,33.3,92,85,64,30.40,30.25,11,0,11,0.45
2013-4-22,65.3,46.9,29.8,48.1,35.1,28.1,94,68,36,30.54,30.40,12,1,12,0.00
2013-4-23,68.9,48.4,29.7,46.0,35.5,27.0,92,66,30,30.46,30.26,14,1,14,0.00
2013-4-24,76.1,53.5,31.3,49.8,37.0,28.9,93,60,26,30.36,30.09,12,0,12,0.00
2013-4-25,80.6,57.3,35.2,49.1,40.6,32.1,92,59,28,30.16,30.07,10,1,10,0.00
2013-4-26,80.1,58.5,38.3,54.0,44.7,35.5,93,64,35,30.26,30.16,12,1,12,0.00
2013-4-27,57.0,51.3,47.3,47.0,43.6,40.4,90,76,54,30.24,30.17,17,1,17,0.23
2013-4-28,64.9,52.8,46.0,50.5,45.6,41.8,91,78,55,30.24,29.96,10,1,10,0.18
2013-4-29,57.4,48.0,41.4,43.7,36.0,28.4,89,66,38,30.18,29.94,22,4,22,0.12
2013-4-30,60.1,47.2,34.9,44.9,35.2,28.9,86,65,38,30.48,30.18,13,2,13,0.12
2013-5-1,72.5,49.8,28.2,43.9,35.0,25.4,93,62,32,30.61,30.47,12,1,12,0.00
2013-5-2,77.2,54.5,34.7,49.2,39.0,31.5,92,61,30,30.58,30.38,14,1,14,0.00
2013-5-3,76.1,55.8,34.9,52.3,42.8,32.2,93,65,40,30.43,30.24,12,1,12,0.00
2013-5-4,82.9,60.2,37.2,54.6,43.6,34.5,94,61,28,30.28,30.02,16,2,16,0.00
2013-5-5,86.7,64.5,40.1,55.0,46.7,37.3,93,59,28,30.04,29.78,51,1,51,0.00
2013-5-6,94.3,67.5,43.0,56.4,47.2,40.0,93,56,23,29.89,29.76,12,1,12,0.00
2013-5-7,80.4,61.0,44.2,57.4,49.4,41.2,92,69,41,30.03,29.84,10,1,10,0.00
2013-5-8,68.9,56.1,44.4,55.2,49.5,41.7,92,80,60,30.18,30.03,6,0,6,0.00
2013-5-9,77.9,58.4,43.3,59.2,49.6,41.2,94,75,46,30.25,30.13,12,1,12,0.00
2013-5-10,88.7,64.5,41.7,62.0,51.1,39.6,94,67,36,30.23,30.12,57,1,57,0.00
2013-5-11,89.1,67.1,48.7,60.1,52.5,45.7,93,64,34,30.22,29.99,11,1,11,0.00
2013-5-12,73.8,62.9,55.2,61.0,55.5,47.2,90,77,56,30.11,30.01,11,1,11,0.25
2013-5-13,66.4,57.5,46.9,59.3,51.7,43.3,90,81,63,30.22,29.94,22,2,22,0.28
2013-5-14,73.6,56.8,44.8,50.9,44.0,38.7,92,66,35,30.26,30.14,11,1,11,0.00
2013-5-15,78.6,56.4,39.7,51.0,44.1,37.0,92,68,33,30.16,30.02,12,1,12,0.09
2013-5-16,77.5,61.1,50.9,57.5,50.8,46.7,89,72,44,30.04,29.87,14,1,14,0.04
2013-5-17,63.3,56.5,52.0,54.9,50.1,47.5,90,80,64,30.07,29.96,9,1,9,0.12
2013-5-18,65.5,57.1,51.6,52.5,48.3,46.3,84,73,56,30.30,30.07,11,1,11,0.02
2013-5-19,68.2,55.8,46.0,54.5,49.1,42.3,90,79,55,30.43,30.30,6,0,6,0.02
2013-5-20,78.6,57.6,40.3,57.6,47.1,37.9,94,71,40,30.39,29.93,11,1,11,0.00
2013-5-21,59.7,51.1,47.1,50.7,46.0,43.6,89,83,66,29.93,29.80,8,0,8,1.04
2013-5-22,54.1,48.7,45.0,48.0,44.9,42.1,91,86,77,29.96,29.87,7,0,7,0.08
2013-5-23,69.6,54.2,40.8,52.5,45.7,38.6,93,74,50,30.04,29.95,14,1,14,5.30
2013-5-24,68.4,54.4,38.3,51.9,44.9,36.1,94,73,50,30.07,30.00,9,0,9,0.00
2013-5-25,73.2,57.7,48.9,52.5,47.3,43.9,90,70,43,30.08,30.01,9,1,9,0.08
2013-5-26,70.5,56.3,47.3,57.3,50.0,43.7,90,80,59,30.03,29.97,7,0,7,0.21
2013-5-27,66.2,57.3,49.6,57.2,52.1,46.8,92,83,69,29.99,29.74,8,1,8,0.20
2013-5-28,66.4,57.6,51.3,57.3,50.8,47.5,91,79,62,29.91,29.80,12,2,12,0.02
2013-5-29,61.2,53.5,49.3,53.9,48.8,46.0,91,84,74,29.99,29.69,7,0,7,0.33
2013-5-30,66.0,54.6,48.0,53.1,48.8,45.6,92,82,58,30.27,29.99,12,1,12,0.30
2013-5-31,74.8,58.8,46.2,55.5,48.2,41.7,92,71,43,30.36,30.26,9,1,9,0.03
2013-6-1,79.9,61.0,44.4,57.1,48.6,41.1,92,67,39,30.27,30.07,13,1,13,0.00
2013-6-2,73.6,60.0,48.9,56.2,49.0,43.9,89,69,43,30.11,30.05,11,1,11,0.02
2013-6-3,81.0,62.1,43.0,58.5,50.1,40.5,93,68,43,30.14,30.07,12,1,12,5.25
2013-6-4,84.7,65.6,43.7,60.1,51.2,41.3,94,64,36,30.16,30.02,11,1,11,0.00
2013-6-5,83.8,63.9,46.2,59.0,51.8,43.5,92,68,39,30.12,30.04,12,1,12,0.00
2013-6-6,86.2,65.9,46.2,62.5,50.0,42.9,93,61,30,30.09,30.01,12,1,12,0.00
2013-6-7,76.1,61.1,48.4,54.6,47.9,43.2,86,64,39,30.19,30.06,14,2,14,0.00
2013-6-8,74.8,60.0,49.6,53.1,47.5,43.0,84,65,44,30.22,30.12,11,2,11,0.00
2013-6-9,74.5,59.1,50.2,53.3,46.1,41.4,84,64,38,30.14,30.05,13,1,13,0.00
2013-6-10,76.8,59.6,41.7,53.7,45.9,38.4,91,63,40,30.07,29.89,10,1,10,0.00
2013-6-11,70.0,57.1,49.6,52.6,47.6,44.2,88,72,50,30.13,29.95,11,1,11,0.18
2013-6-12,75.7,59.5,49.5,53.0,48.0,45.1,89,68,40,30.17,30.11,10,1,10,0.00
2013-6-13,72.3,59.3,51.6,57.3,50.5,45.5,90,74,50,30.24,30.16,10,0,10,0.20
2013-6-14,73.4,60.0,48.7,53.3,49.1,44.1,87,69,46,30.26,30.08,9,1,9,0.00
2013-6-15,83.3,63.8,41.9,58.4,51.1,39.5,94,67,41,30.09,29.91,12,1,12,0.00
2013-6-16,84.9,65.1,48.0,60.0,54.0,45.6,93,71,40,30.11,30.00,10,0,10,0.04
2013-6-17,86.2,67.1,50.4,59.8,52.6,47.5,92,64,34,30.12,29.89,10,1,10,0.15
2013-6-18,79.9,65.2,54.0,59.9,51.7,46.3,90,65,39,30.01,29.88,10,1,10,0.00
2013-6-19,72.1,59.6,52.9,57.9,52.3,47.4,88,78,54,30.03,29.93,9,0,9,0.30
2013-6-20,57.4,54.5,52.5,53.5,51.0,49.5,91,88,83,30.15,29.98,6,0,6,1.25
2013-6-21,74.1,60.5,51.6,58.4,52.6,47.9,93,77,54,30.19,30.13,7,0,7,0.02
2013-6-22,87.1,67.4,47.3,60.1,52.5,45.1,94,64,32,30.16,29.88,9,0,9,0.00
2013-6-23,74.3,64.3,52.2,62.4,57.2,49.3,92,79,59,29.87,29.60,0,0,0,0.02
2013-6-24,73.8,63.3,55.9,59.4,56.6,52.4,92,80,55,29.73,29.59,11,1,11,0.63
2013-6-25,79.5,62.3,53.4,62.5,56.0,50.5,93,81,51,29.88,29.70,11,1,11,0.80
2013-6-26,77.4,66.2,53.4,64.4,57.8,50.8,93,76,57,30.11,29.87,14,1,14,5.29
2013-6-27,76.5,65.5,57.0,64.9,59.4,54.1,93,81,64,30.22,30.07,10,1,11,0.10
2013-6-28,93.7,74.9,57.4,67.3,62.0,55.4,93,68,38,30.21,30.04,12,0,12,0.00
2013-6-29,93.4,75.1,61.0,69.6,62.4,57.1,92,68,41,30.12,30.01,8,0,8,0.00
2013-6-30,97.5,77.6,55.9,70.1,63.2,53.6,93,65,38,30.04,29.86,10,1,10,0.00
2013-7-1,96.6,76.2,58.8,69.1,61.3,54.3,92,63,39,30.04,29.92,11,1,11,0.00
2013-7-2,84.7,69.3,55.6,61.4,54.2,47.9,88,61,40,30.12,30.04,14,2,14,0.00
2013-7-3,83.7,66.1,49.8,57.8,50.2,44.8,87,60,31,30.19,30.06,12,1,12,0.00
2013-7-4,76.6,64.0,52.9,55.2,51.1,44.9,82,64,45,30.14,30.04,9,1,9,0.00
2013-7-5,80.4,63.3,48.2,58.5,52.9,45.3,93,71,44,30.07,29.96,6,0,6,0.00
2013-7-6,84.7,66.4,48.2,62.1,54.2,46.0,94,68,43,30.01,29.87,9,1,12,0.00
2013-7-7,87.1,69.1,50.7,62.8,54.9,47.8,92,64,40,29.97,29.88,10,1,10,0.00
2013-7-8,86.9,66.8,49.8,63.4,55.3,47.0,93,70,42,30.12,29.96,7,0,9,0.00
2013-7-9,90.0,69.3,50.7,66.0,55.1,47.4,94,65,37,30.14,30.02,15,1,15,0.00
2013-7-10,82.9,64.2,49.6,60.6,52.3,46.0,92,68,43,30.08,29.97,13,1,13,0.00
2013-7-11,73.8,61.0,49.3,54.4,47.6,42.0,79,63,42,30.10,30.02,9,1,10,0.00
2013-7-12,76.8,59.9,43.5,55.7,48.6,40.1,92,69,43,30.13,30.04,8,0,10,0.00
2013-7-13,81.0,63.0,41.9,57.5,48.6,39.5,93,64,37,30.22,30.10,11,1,11,0.00
2013-7-14,88.2,65.8,43.5,60.6,48.3,41.1,93,59,28,30.17,30.01,12,1,12,0.00
2013-7-15,85.6,65.6,43.0,59.3,48.8,40.0,91,59,34,30.09,29.91,15,1,15,0.00
2013-7-16,93.7,71.1,47.8,63.8,54.6,44.8,93,61,31,29.94,29.82,12,1,12,0.00
2013-7-17,75.4,66.9,61.3,60.3,58.2,55.0,90,74,57,30.20,29.89,12,1,12,0.04
2013-7-18,84.7,68.4,55.9,61.3,55.8,50.6,83,66,43,30.25,30.13,11,1,11,0.00
2013-7-19,84.0,64.6,49.3,62.2,54.7,46.7,93,73,46,30.21,30.05,13,2,13,5.24
2013-7-20,82.2,63.7,51.1,63.0,55.4,48.2,92,76,49,30.12,29.97,8,0,8,0.00
2013-7-21,82.6,63.8,50.0,63.3,55.7,47.3,93,77,50,30.01,29.91,7,0,7,0.00
2013-7-22,83.5,65.9,52.9,64.6,57.2,50.3,93,76,49,30.09,29.96,8,1,9,0.00
2013-7-23,89.2,68.3,51.4,65.4,55.5,49.0,94,68,37,30.11,29.97,14,1,14,0.00
2013-7-24,89.4,67.7,48.0,61.1,52.4,45.4,94,63,35,30.09,30.01,12,1,12,0.00
2013-7-25,89.6,67.5,45.5,61.1,51.3,43.0,93,62,29,30.13,30.07,11,1,11,0.00
2013-7-26,93.0,67.5,45.7,61.1,48.7,40.6,93,57,26,30.19,30.09,12,1,12,0.00
2013-7-27,85.3,65.4,45.0,58.3,49.6,41.8,92,61,34,30.19,30.00,11,1,11,0.00
2013-7-28,82.9,64.1,45.7,60.0,52.3,42.8,93,69,41,30.04,29.95,11,1,11,0.00
2013-7-29,82.4,66.5,55.6,59.5,54.5,50.8,84,68,43,30.03,29.95,9,1,10,0.00
2013-7-30,87.6,68.5,49.6,62.7,55.3,47.2,94,67,39,30.16,30.02,8,0,8,0.00
2013-7-31,83.8,64.5,51.4,62.8,56.2,48.8,93,77,48,30.15,29.98,12,1,12,0.00
2013-8-1,66.7,61.4,57.4,57.8,55.8,53.9,90,82,71,30.09,30.05,9,1,9,0.00
2013-8-2,63.0,60.1,57.2,58.7,56.2,53.9,92,87,82,30.16,30.07,7,0,7,0.55
2013-8-3,79.3,66.9,58.3,64.8,58.8,55.5,93,77,55,30.16,30.06,8,1,8,0.00
2013-8-4,86.0,69.4,57.4,65.4,59.3,53.2,89,72,48,30.09,29.95,1,0,1,0.00
2013-8-5,92.5,70.9,53.8,66.3,57.5,51.5,94,67,35,30.04,29.94,0,0,0,0.00
2013-8-6,88.5,68.5,47.8,63.1,53.1,45.6,94,63,31,30.04,29.92,0,0,0,0.00
2013-8-7,92.7,69.7,49.6,62.5,54.0,47.1,94,63,32,30.03,29.95,0,0,0,0.00
2013-8-8,88.9,68.8,53.8,64.8,55.4,48.7,93,66,41,30.07,29.96,0,0,0,0.00
2013-8-9,91.8,69.4,49.8,63.4,55.5,46.6,92,65,38,29.99,29.83,0,0,0,0.00
2013-8-10,92.5,71.8,60.4,68.3,61.2,55.0,92,72,42,30.02,29.87,0,0,0,0.08
2013-8-11,63.5,60.0,57.7,58.9,55.8,54.1,90,86,78,30.09,30.00,0,0,0,0.16
2013-8-12,88.0,69.7,54.7,63.5,55.6,50.9,89,63,42,30.09,30.01,0,0,0,5.24
2013-8-13,89.8,70.0,54.3,61.9,56.0,50.2,90,65,37,30.13,29.94,0,0,0,0.00
2013-8-14,92.5,69.0,51.1,65.4,57.2,48.8,94,70,36,29.98,29.91,0,0,0,0.02
2013-8-15,75.0,67.6,62.2,66.2,62.9,59.2,92,85,70,30.01,29.94,0,0,0,0.13
2013-8-16,91.8,74.3,62.1,68.7,61.6,55.7,94,69,35,30.03,29.95,0,0,0,0.00
2013-8-17,82.2,67.4,57.9,62.5,58.3,53.6,92,74,50,30.10,30.01,1,0,1,0.00
2013-8-18,85.5,67.2,55.4,63.5,56.2,51.5,92,71,42,30.15,30.08,0,0,0,0.00
2013-8-19,87.1,67.8,56.5,61.5,55.2,48.4,89,66,39,30.14,30.07,12,0,12,0.00
2013-8-20,81.7,64.4,48.7,59.4,51.3,45.7,92,66,40,30.20,30.08,14,1,14,0.00
2013-8-21,85.6,65.0,44.8,60.9,51.9,42.4,93,67,38,30.13,29.94,12,1,12,0.00
2013-8-22,91.9,68.7,48.7,64.8,55.7,46.5,93,68,34,29.98,29.81,7,0,7,0.00
2013-8-23,80.4,67.2,57.7,61.0,57.1,54.7,91,72,47,29.92,29.83,12,1,12,0.00
2013-8-24,78.1,64.3,54.7,62.9,56.3,49.7,90,76,51,29.95,29.86,10,0,10,0.16
2013-8-25,82.4,62.8,47.8,62.2,54.2,45.7,93,76,47,29.99,29.87,10,0,10,0.00
2013-8-26,84.6,66.9,56.5,63.0,57.3,53.0,92,74,44,29.98,29.85,12,1,12,0.00
2013-8-27,87.3,70.1,58.3,64.4,58.9,55.3,91,71,39,29.99,29.81,9,0,9,0.02
2013-8-28,88.9,70.5,59.2,68.5,61.1,55.1,93,75,44,29.91,29.84,6,0,6,0.18
2013-8-29,77.4,66.8,63.3,66.7,62.4,60.4,92,86,66,30.03,29.87,8,0,8,1.15
2013-8-30,85.3,69.0,56.1,63.7,57.5,52.0,94,71,37,30.17,30.03,14,1,14,0.00
2013-8-31,86.0,65.6,48.4,62.4,55.4,46.2,93,73,42,30.11,29.86,13,1,13,0.00
2013-9-1,88.9,68.7,52.2,66.6,57.7,50.1,94,72,41,29.91,29.81,9,0,9,0.00
2013-9-2,89.2,69.3,53.8,65.6,57.2,51.3,94,69,40,29.97,29.87,12,0,12,0.00
2013-9-3,76.3,64.0,55.9,65.9,58.7,53.1,93,83,63,30.05,29.96,6,0,6,0.24
2013-9-4,73.2,63.1,54.3,63.8,58.7,52.0,94,86,70,30.07,30.02,7,0,7,0.00
2013-9-5,75.4,63.4,57.0,64.9,58.9,55.3,95,86,68,30.07,29.93,8,0,8,0.35
2013-9-6,76.8,65.2,58.8,66.8,60.5,56.8,94,85,68,30.12,29.96,9,0,9,1.47
2013-9-7,79.5,66.4,56.8,65.4,59.5,54.1,94,80,55,30.13,30.02,9,0,9,0.06
2013-9-8,85.1,67.6,55.4,67.0,59.0,53.1,94,77,49,30.12,30.03,0,0,0,0.00
2013-9-9,83.5,66.2,55.8,67.5,58.4,53.3,94,78,50,30.09,29.99,10,0,10,0.00
2013-9-10,83.1,65.7,55.0,66.9,59.1,52.4,94,81,57,30.03,29.89,9,0,9,0.00
2013-9-11,95.7,72.1,52.5,72.1,60.2,50.8,95,72,32,29.97,29.88,10,0,10,0.00
2013-9-12,87.6,69.0,54.7,67.2,59.4,52.7,94,74,48,30.02,29.91,8,0,8,0.00
2013-9-13,69.3,62.0,54.1,62.7,57.9,51.8,94,87,77,30.01,29.89,3,0,3,0.00
2013-9-14,70.0,63.9,60.6,63.3,60.2,58.3,92,88,77,29.91,29.80,0,0,0,0.00
2013-9-15,70.0,63.8,58.8,64.0,60.2,56.8,93,88,78,29.83,29.72,6,0,6,5.58
2013-9-16,64.0,60.7,55.9,61.2,58.0,53.9,93,91,88,29.96,29.83,7,0,7,0.25
2013-9-17,65.8,57.8,53.8,58.0,54.2,52.0,95,88,74,29.96,29.88,7,0,7,0.02
2013-9-18,73.6,58.3,48.4,58.2,52.0,45.5,95,82,50,30.10,29.96,5,0,6,0.04
2013-9-19,85.8,60.9,41.0,60.1,49.3,39.4,95,71,34,30.08,29.78,6,0,6,0.00
2013-9-20,85.1,62.1,44.4,59.3,50.3,42.1,94,70,35,29.79,29.59,10,0,10,0.12
2013-9-21,77.7,62.6,56.3,60.3,54.2,49.6,92,76,46,29.74,29.66,9,0,9,0.04
2013-9-22,60.3,57.5,54.7,54.1,52.0,49.1,86,82,71,29.75,29.60,19,1,19,0.17
2013-9-23,60.4,55.5,50.2,55.0,51.1,47.8,92,85,80,29.99,29.75,12,1,12,0.57
2013-9-24,66.6,54.1,48.0,55.6,49.2,46.1,94,84,58,30.00,29.85,9,0,9,0.55
2013-9-25,60.1,52.3,44.2,52.5,48.1,42.0,93,86,75,30.07,29.88,6,0,6,0.00
2013-9-26,68.7,50.9,39.0,56.3,45.1,37.3,95,82,55,30.16,30.06,8,0,8,0.00
2013-9-27,54.7,50.6,43.2,50.8,48.2,40.7,94,91,87,30.15,29.86,7,0,7,0.32
2013-9-28,59.7,54.5,50.2,57.4,52.2,48.2,95,92,89,29.87,29.37,24,2,24,0.86
2013-9-29,55.0,52.4,50.5,50.8,48.7,46.9,92,87,77,29.58,29.18,23,3,23,0.51
2013-9-30,59.2,52.3,48.4,53.5,47.2,44.6,88,83,75,29.94,29.43,20,3,20,0.00
2013-10-1,59.7,51.4,47.8,48.6,45.1,42.7,90,79,62,30.14,29.93,16,2,16,0.16
2013-10-2,56.5,50.8,47.8,51.1,47.3,45.3,93,88,79,30.20,30.08,8,0,8,0.31
2013-10-3,63.1,52.4,44.8,54.2,46.9,43.2,94,83,60,30.48,30.20,7,0,7,0.00
2013-10-4,73.0,52.7,36.3,52.4,44.4,34.4,95,77,43,30.52,30.37,0,0,0,0.00
2013-10-5,74.7,55.0,41.5,54.6,45.7,39.4,94,75,35,30.40,30.16,7,0,7,0.00
2013-10-6,82.8,57.2,38.8,60.3,44.6,37.0,95,69,24,30.17,29.89,19,0,19,0.00
2013-10-7,58.1,53.3,49.8,52.4,48.8,46.5,91,85,73,30.05,29.90,12,1,12,0.84
2013-10-8,60.6,50.3,37.8,53.7,45.0,35.1,94,83,56,30.11,29.98,12,0,12,0.32
2013-10-9,63.7,46.1,31.8,50.3,39.9,30.1,95,81,55,30.17,29.98,5,0,5,0.00
2013-10-10,65.1,50.7,42.4,51.8,45.0,39.7,93,82,58,30.10,29.96,0,0,0,0.00
2013-10-11,63.3,49.6,39.4,53.3,45.2,37.5,95,85,65,30.17,30.09,0,0,0,0.00
2013-10-12,61.5,49.9,40.6,51.7,45.1,37.8,95,84,65,30.25,30.09,0,0,0,0.04
2013-10-13,58.3,46.2,38.3,51.3,42.1,36.0,95,86,71,30.40,30.24,0,0,0,0.00
2013-10-14,63.7,45.0,32.2,52.6,39.6,30.4,95,83,57,30.45,30.38,0,0,0,0.00
2013-10-15,67.3,47.5,33.3,54.3,41.4,31.4,95,81,51,30.42,30.20,0,0,0,0.00
2013-10-16,56.5,48.0,40.6,49.8,44.3,38.2,93,87,78,30.23,30.17,0,0,0,0.02
2013-10-17,63.5,49.6,39.9,53.2,45.1,37.6,92,85,64,30.31,30.23,0,0,0,0.00
2013-10-18,66.9,46.8,35.8,55.9,41.9,34.1,95,85,57,30.28,30.16,0,0,0,0.00
2013-10-19,53.6,45.3,38.5,48.4,42.3,36.3,93,89,81,30.23,30.17,0,0,0,0.00
2013-10-20,50.5,46.7,43.3,47.0,44.2,41.5,93,91,86,30.24,30.17,0,0,0,0.00
2013-10-21,52.3,47.3,43.0,48.8,45.0,41.1,94,92,87,30.20,30.12,0,0,0,0.00
2013-10-22,55.2,48.3,43.3,51.4,46.0,41.7,94,92,85,30.15,30.05,0,0,0,0.02
2013-10-23,71.6,50.3,38.8,59.3,45.7,37.0,94,85,60,30.08,29.98,0,0,0,0.00
2013-10-24,66.9,47.8,36.7,55.4,43.5,34.8,94,86,62,30.15,30.03,0,0,0,0.00
2013-10-25,54.0,48.5,45.7,49.0,45.4,43.6,93,89,81,30.34,30.14,0,0,0,0.00
2013-10-26,55.2,49.2,45.7,48.4,45.2,43.0,91,86,76,30.37,30.21,0,0,0,0.00
2013-10-27,57.4,48.0,38.1,50.1,44.6,36.2,93,88,74,30.22,29.90,14,0,14,0.33
2013-10-28,64.0,44.5,31.8,52.6,35.4,30.3,96,75,36,29.99,29.88,12,0,12,0.00
2013-10-29,62.4,41.3,27.7,47.6,34.1,25.7,94,78,46,30.07,29.98,4,0,4,0.00
2013-10-30,60.6,44.7,30.0,49.1,38.7,27.8,94,81,58,30.16,30.06,11,0,11,0.02
2013-10-31,53.4,49.5,46.8,50.8,46.7,42.9,93,90,82,30.29,30.12,8,0,8,0.33
2013-11-1,60.4,52.6,48.0,55.0,49.6,46.4,95,90,80,30.30,29.86,3,0,3,0.02
2013-11-2,51.4,47.1,41.9,49.1,44.7,40.0,94,91,84,29.91,29.50,26,2,26,1.10
2013-11-3,51.3,40.0,29.5,46.9,37.4,27.7,95,91,77,30.15,29.91,7,0,7,0.18
2013-11-4,54.3,38.2,26.6,46.6,33.7,24.8,96,85,64,30.22,30.09,8,0,8,0.04
2013-11-5,49.6,44.2,40.5,47.6,42.1,36.6,94,92,86,30.29,30.04,9,0,9,0.02
2013-11-6,56.5,45.8,37.9,50.5,42.8,36.6,96,90,77,30.35,30.05,6,0,6,0.09
2013-11-7,50.5,47.8,46.4,49.1,45.7,44.1,95,93,88,30.04,29.72,20,2,20,0.63
2013-11-8,60.4,47.3,42.3,51.8,43.9,39.3,96,88,68,30.19,29.99,10,0,10,0.34
2013-11-9,54.0,43.5,33.6,48.3,40.7,32.0,95,90,79,30.19,30.08,5,0,5,0.05
2013-11-10,49.3,45.6,43.0,47.0,43.9,41.1,95,94,91,30.18,30.11,3,0,3,0.10
2013-11-11,59.4,45.3,38.5,54.5,43.2,37.1,96,93,82,30.20,30.02,2,0,2,0.00
2013-11-12,57.2,49.6,40.1,55.9,47.7,38.8,97,93,89,30.39,30.05,12,0,12,0.08
2013-11-13,61.9,53.0,48.0,53.5,48.5,44.8,94,85,67,30.45,30.33,9,0,9,0.00
2013-11-14,50.9,46.2,41.2,48.3,44.1,39.3,95,93,90,30.33,30.09,6,0,6,0.22
2013-11-15,45.1,43.4,42.1,43.5,41.9,40.2,95,94,91,30.10,29.37,10,1,10,1.06
2013-11-16,48.0,39.9,35.2,45.4,38.0,33.5,95,93,86,29.81,29.39,8,0,8,0.68
2013-11-17,48.4,43.8,34.9,45.7,41.8,33.5,96,93,89,29.94,29.81,14,1,14,0.02
2013-11-18,49.8,48.5,46.9,48.2,46.3,43.7,95,92,89,29.94,29.59,58,1,58,0.34
2013-11-19,50.9,42.5,31.8,49.5,38.6,26.4,95,86,70,30.12,29.56,14,1,14,0.27
2013-11-20,44.4,30.7,23.7,36.8,26.0,21.5,94,84,59,30.56,30.12,8,0,10,0.00
2013-11-21,45.0,28.7,19.6,35.2,24.0,17.3,94,84,54,30.70,30.55,6,0,6,0.00
2013-11-22,48.0,30.0,20.5,39.1,24.8,18.0,94,82,49,30.69,30.49,11,0,11,0.00
2013-11-23,49.3,32.3,22.8,41.8,28.4,20.6,95,86,66,30.49,30.23,6,0,6,0.00
2013-11-24,53.2,34.6,25.0,43.6,30.6,23.2,95,86,65,30.29,30.19,4,0,4,0.02
2013-11-25,55.4,36.8,27.0,45.3,32.8,25.2,95,86,64,30.34,30.28,3,0,3,0.00
2013-11-26,57.9,38.6,26.1,48.1,34.3,24.3,96,85,57,30.30,30.13,3,0,3,0.00
2013-11-27,56.7,41.1,30.4,47.2,37.4,28.4,94,87,69,30.13,29.97,1,0,1,0.12
2013-11-28,58.5,38.2,28.2,47.7,34.0,26.5,96,86,56,30.21,30.05,4,0,4,0.00
2013-11-29,48.7,42.6,35.4,45.0,39.8,33.3,94,90,82,30.35,30.20,2,0,2,0.00
2013-11-30,49.3,46.2,43.5,46.5,43.9,41.5,94,92,88,30.35,30.10,9,0,9,0.21
2013-12-1,50.5,47.8,39.4,49.4,46.2,37.2,96,94,90,30.11,29.76,14,1,14,1.10
2013-12-2,40.3,36.5,33.3,37.9,34.5,31.5,94,92,90,30.08,29.83,10,0,10,0.12
2013-12-3,39.7,31.1,25.9,37.0,29.4,24.4,96,93,88,30.35,30.08,2,0,2,0.02
2013-12-4,41.4,27.1,19.9,36.4,24.3,18.2,96,89,71,30.38,30.32,5,0,5,0.00
2013-12-5,35.2,23.8,16.9,33.1,21.4,14.6,95,91,85,30.36,30.23,2,0,2,0.00
2013-12-6,35.8,21.0,12.9,25.9,14.9,9.2,93,79,49,30.30,30.18,10,0,10,0.00
2013-12-7,33.1,16.5,8.1,20.1,9.5,5.2,90,76,48,30.47,30.29,8,0,8,0.00
2013-12-8,35.8,20.6,9.5,25.4,14.3,5.8,89,78,53,30.62,30.46,0,0,0,0.00
2013-12-9,33.6,25.3,13.1,28.3,21.6,9.9,89,86,79,30.64,30.51,2,0,2,0.00
2013-12-10,37.8,32.3,29.3,34.0,29.6,26.5,92,90,85,30.53,30.44,3,0,3,0.00
2013-12-11,44.8,31.7,24.6,38.4,28.3,22.9,95,88,71,30.45,30.19,5,0,5,0.00
2013-12-12,41.5,34.2,26.4,38.0,32.2,24.7,95,92,86,30.19,30.07,9,0,9,0.10
2013-12-13,46.9,41.8,39.0,45.6,40.4,37.4,96,94,93,30.45,30.16,4,0,4,0.14
2013-12-14,47.3,43.1,38.5,45.6,41.6,37.1,96,94,92,30.47,30.35,7,0,7,0.02
2013-12-15,48.7,45.5,40.8,47.6,44.2,39.5,96,95,93,30.50,30.36,8,0,8,0.17
2013-12-16,50.2,37.2,29.1,47.6,35.7,27.6,97,94,89,30.54,30.30,4,0,4,0.00
2013-12-17,41.4,34.7,28.6,40.3,33.5,27.1,97,95,94,30.30,30.14,4,0,4,0.02
2013-12-18,43.9,36.4,25.3,42.7,34.7,23.8,97,94,84,30.19,30.05,6,0,6,0.00
2013-12-19,37.9,27.8,20.5,36.5,26.1,19.0,96,93,90,30.38,30.18,3,0,3,0.00
2013-12-20,35.2,32.6,28.2,33.7,31.3,26.7,96,95,94,30.23,29.75,8,0,8,0.02
2013-12-21,42.1,36.1,33.4,40.5,34.9,32.4,97,96,94,30.20,29.87,5,0,5,0.24
2013-12-22,46.0,42.1,36.3,45.0,41.1,35.2,97,96,96,30.32,30.19,6,0,6,0.84
2013-12-23,48.9,45.5,37.9,48.1,43.7,35.8,97,93,84,30.55,30.14,19,1,19,0.55
2013-12-24,38.5,37.2,36.5,36.9,35.6,34.9,95,94,94,30.59,30.55,0,0,0,0.02
2013-12-25,47.7,35.5,25.0,44.3,33.4,23.3,97,92,82,30.55,30.42,4,0,4,5.24
2013-12-26,53.4,38.7,29.1,46.0,35.8,27.4,96,90,73,30.43,30.23,2,0,2,0.00
2013-12-27,40.8,35.4,28.8,39.7,34.2,27.2,96,95,93,30.40,30.12,4,0,4,0.04
2013-12-28,46.6,41.2,39.0,45.2,40.0,37.7,97,95,93,30.56,30.39,3,0,3,0.00
2013-12-29,43.0,39.0,36.1,41.6,37.7,35.1,96,95,94,30.51,30.34,6,0,6,0.02
2013-12-30,43.9,39.3,34.5,42.8,38.1,33.2,97,96,95,30.35,30.14,10,0,10,0.04
2013-12-31,46.6,42.8,39.0,45.5,41.6,37.7,97,96,95,30.42,30.22,9,0,9,0.04
2014-1-1,45.7,37.9,29.7,44.1,36.8,28.7,97,96,94,30.46,30.27,3,0,3,0.00
2014-1-2,47.1,43.1,39.0,46.0,41.8,37.8,97,95,92,30.27,29.92,14,1,14,0.72